sensor_id;sensor_type;location;lat;lon;timestamp;P1;durP1;ratioP1;P2;durP2;ratioP2
25553;SDS011;13446;50.926;5.332;2023-12-20T00:01:22;25.00;;;5.05;;
25553;SDS011;13446;50.926;5.332;2023-12-20T00:03:48;29.15;;;4.97;;
25553;SDS011;13446;50.926;5.332;2023-12-20T00:06:14;20.52;;;4.50;;
25553;SDS011;13446;50.926;5.332;2023-12-20T00:08:40;24.00;;;4.78;;
25553;SDS011;13446;50.926;5.332;2023-12-20T00:11:05;21.30;;;4.28;;
25553;SDS011;13446;50.926;5.332;2023-12-20T00:13:31;18.70;;;3.58;;
25553;SDS011;13446;50.926;5.332;2023-12-20T00:15:57;19.67;;;3.58;;
25553;SDS011;13446;50.926;5.332;2023-12-20T00:18:22;16.67;;;3.33;;
25553;SDS011;13446;50.926;5.332;2023-12-20T00:20:48;15.60;;;2.83;;
25553;SDS011;13446;50.926;5.332;2023-12-20T00:23:14;20.65;;;3.30;;
25553;SDS011;13446;50.926;5.332;2023-12-20T00:25:40;15.00;;;3.03;;
25553;SDS011;13446;50.926;5.332;2023-12-20T00:28:05;13.43;;;2.55;;
25553;SDS011;13446;50.926;5.332;2023-12-20T00:30:31;18.10;;;2.88;;
25553;SDS011;13446;50.926;5.332;2023-12-20T00:32:57;16.05;;;2.42;;
25553;SDS011;13446;50.926;5.332;2023-12-20T00:35:23;18.20;;;2.47;;
25553;SDS011;13446;50.926;5.332;2023-12-20T00:37:49;18.10;;;2.58;;
25553;SDS011;13446;50.926;5.332;2023-12-20T00:40:15;19.10;;;2.95;;
25553;SDS011;13446;50.926;5.332;2023-12-20T00:42:40;24.17;;;3.22;;
25553;SDS011;13446;50.926;5.332;2023-12-20T00:45:06;13.73;;;2.63;;
25553;SDS011;13446;50.926;5.332;2023-12-20T00:47:32;14.45;;;2.85;;
25553;SDS011;13446;50.926;5.332;2023-12-20T00:49:58;14.95;;;2.22;;
25553;SDS011;13446;50.926;5.332;2023-12-20T00:52:25;14.25;;;3.00;;
25553;SDS011;13446;50.926;5.332;2023-12-20T00:54:50;17.08;;;3.03;;
25553;SDS011;13446;50.926;5.332;2023-12-20T00:57:17;20.70;;;2.90;;
25553;SDS011;13446;50.926;5.332;2023-12-20T00:59:44;14.13;;;2.42;;
25553;SDS011;13446;50.926;5.332;2023-12-20T01:02:10;25.00;;;3.00;;
25553;SDS011;13446;50.926;5.332;2023-12-20T01:04:36;21.63;;;2.50;;
25553;SDS011;13446;50.926;5.332;2023-12-20T01:07:02;13.18;;;2.25;;
25553;SDS011;13446;50.926;5.332;2023-12-20T01:09:27;16.60;;;2.55;;
25553;SDS011;13446;50.926;5.332;2023-12-20T01:11:53;19.60;;;2.70;;
25553;SDS011;13446;50.926;5.332;2023-12-20T01:14:19;21.23;;;2.75;;
25553;SDS011;13446;50.926;5.332;2023-12-20T01:16:45;17.77;;;3.00;;
25553;SDS011;13446;50.926;5.332;2023-12-20T01:19:11;20.00;;;3.00;;
25553;SDS011;13446;50.926;5.332;2023-12-20T01:21:38;16.25;;;2.72;;
25553;SDS011;13446;50.926;5.332;2023-12-20T01:24:04;16.23;;;2.08;;
25553;SDS011;13446;50.926;5.332;2023-12-20T01:26:29;19.08;;;2.35;;
25553;SDS011;13446;50.926;5.332;2023-12-20T01:28:55;11.02;;;2.50;;
25553;SDS011;13446;50.926;5.332;2023-12-20T01:31:21;14.48;;;2.40;;
25553;SDS011;13446;50.926;5.332;2023-12-20T01:33:47;17.85;;;2.80;;
25553;SDS011;13446;50.926;5.332;2023-12-20T01:36:14;22.17;;;3.17;;
25553;SDS011;13446;50.926;5.332;2023-12-20T01:38:39;22.88;;;2.90;;
25553;SDS011;13446;50.926;5.332;2023-12-20T01:41:05;24.65;;;3.25;;
25553;SDS011;13446;50.926;5.332;2023-12-20T01:43:31;23.70;;;3.97;;
25553;SDS011;13446;50.926;5.332;2023-12-20T01:45:57;17.80;;;3.42;;
25553;SDS011;13446;50.926;5.332;2023-12-20T01:48:23;20.35;;;2.95;;
25553;SDS011;13446;50.926;5.332;2023-12-20T01:50:50;15.13;;;3.38;;
25553;SDS011;13446;50.926;5.332;2023-12-20T01:53:17;20.60;;;3.47;;
25553;SDS011;13446;50.926;5.332;2023-12-20T01:55:45;12.93;;;3.15;;
25553;SDS011;13446;50.926;5.332;2023-12-20T01:58:12;20.33;;;3.17;;
25553;SDS011;13446;50.926;5.332;2023-12-20T02:00:39;26.95;;;3.70;;
25553;SDS011;13446;50.926;5.332;2023-12-20T02:03:05;20.30;;;2.95;;
25553;SDS011;13446;50.926;5.332;2023-12-20T02:05:32;19.05;;;3.65;;
25553;SDS011;13446;50.926;5.332;2023-12-20T02:07:58;12.65;;;3.15;;
25553;SDS011;13446;50.926;5.332;2023-12-20T02:10:24;20.85;;;3.20;;
25553;SDS011;13446;50.926;5.332;2023-12-20T02:12:50;17.20;;;3.05;;
25553;SDS011;13446;50.926;5.332;2023-12-20T02:15:16;14.23;;;2.90;;
25553;SDS011;13446;50.926;5.332;2023-12-20T02:17:42;17.95;;;3.85;;
25553;SDS011;13446;50.926;5.332;2023-12-20T02:20:08;19.75;;;3.30;;
25553;SDS011;13446;50.926;5.332;2023-12-20T02:22:35;22.85;;;4.05;;
25553;SDS011;13446;50.926;5.332;2023-12-20T02:25:00;15.27;;;3.28;;
25553;SDS011;13446;50.926;5.332;2023-12-20T02:27:26;16.88;;;3.22;;
25553;SDS011;13446;50.926;5.332;2023-12-20T02:29:52;18.80;;;3.30;;
25553;SDS011;13446;50.926;5.332;2023-12-20T02:32:18;18.08;;;3.63;;
25553;SDS011;13446;50.926;5.332;2023-12-20T02:34:46;21.45;;;3.92;;
25553;SDS011;13446;50.926;5.332;2023-12-20T02:37:12;25.40;;;3.63;;
25553;SDS011;13446;50.926;5.332;2023-12-20T02:39:38;28.52;;;4.15;;
25553;SDS011;13446;50.926;5.332;2023-12-20T02:42:04;24.42;;;4.22;;
25553;SDS011;13446;50.926;5.332;2023-12-20T02:44:29;24.85;;;3.53;;
25553;SDS011;13446;50.926;5.332;2023-12-20T02:46:55;18.83;;;3.80;;
25553;SDS011;13446;50.926;5.332;2023-12-20T02:49:21;17.15;;;3.90;;
25553;SDS011;13446;50.926;5.332;2023-12-20T02:51:47;22.75;;;3.30;;
25553;SDS011;13446;50.926;5.332;2023-12-20T02:54:13;17.17;;;3.63;;
25553;SDS011;13446;50.926;5.332;2023-12-20T02:56:39;19.30;;;3.03;;
25553;SDS011;13446;50.926;5.332;2023-12-20T02:59:04;20.35;;;3.75;;
25553;SDS011;13446;50.926;5.332;2023-12-20T03:01:31;16.52;;;3.40;;
25553;SDS011;13446;50.926;5.332;2023-12-20T03:03:57;23.48;;;3.08;;
25553;SDS011;13446;50.926;5.332;2023-12-20T03:06:22;21.00;;;3.20;;
25553;SDS011;13446;50.926;5.332;2023-12-20T03:08:48;24.17;;;3.95;;
25553;SDS011;13446;50.926;5.332;2023-12-20T03:11:14;18.55;;;3.50;;
25553;SDS011;13446;50.926;5.332;2023-12-20T03:13:40;17.95;;;3.80;;
25553;SDS011;13446;50.926;5.332;2023-12-20T03:16:12;18.02;;;4.68;;
25553;SDS011;13446;50.926;5.332;2023-12-20T03:18:38;24.27;;;3.95;;
25553;SDS011;13446;50.926;5.332;2023-12-20T03:21:05;21.65;;;4.70;;
25553;SDS011;13446;50.926;5.332;2023-12-20T03:23:31;18.95;;;4.03;;
25553;SDS011;13446;50.926;5.332;2023-12-20T03:26:00;20.67;;;3.97;;
25553;SDS011;13446;50.926;5.332;2023-12-20T03:28:26;19.67;;;4.05;;
25553;SDS011;13446;50.926;5.332;2023-12-20T03:30:52;19.42;;;3.80;;
25553;SDS011;13446;50.926;5.332;2023-12-20T03:33:18;20.20;;;3.90;;
25553;SDS011;13446;50.926;5.332;2023-12-20T03:35:44;18.50;;;3.55;;
25553;SDS011;13446;50.926;5.332;2023-12-20T03:38:10;15.82;;;4.05;;
25553;SDS011;13446;50.926;5.332;2023-12-20T03:40:35;25.20;;;3.97;;
25553;SDS011;13446;50.926;5.332;2023-12-20T03:43:01;23.05;;;3.45;;
25553;SDS011;13446;50.926;5.332;2023-12-20T03:45:27;24.95;;;3.50;;
25553;SDS011;13446;50.926;5.332;2023-12-20T03:47:52;14.05;;;3.50;;
25553;SDS011;13446;50.926;5.332;2023-12-20T03:50:20;18.15;;;3.90;;
25553;SDS011;13446;50.926;5.332;2023-12-20T03:52:49;18.52;;;3.42;;
25553;SDS011;13446;50.926;5.332;2023-12-20T03:55:15;16.83;;;3.72;;
25553;SDS011;13446;50.926;5.332;2023-12-20T03:57:40;25.92;;;4.53;;
25553;SDS011;13446;50.926;5.332;2023-12-20T04:00:10;21.30;;;3.60;;
25553;SDS011;13446;50.926;5.332;2023-12-20T04:02:36;19.02;;;3.83;;
25553;SDS011;13446;50.926;5.332;2023-12-20T04:05:06;33.83;;;3.65;;
25553;SDS011;13446;50.926;5.332;2023-12-20T04:07:32;21.25;;;4.15;;
25553;SDS011;13446;50.926;5.332;2023-12-20T04:09:58;17.80;;;3.88;;
25553;SDS011;13446;50.926;5.332;2023-12-20T04:12:24;27.48;;;4.07;;
25553;SDS011;13446;50.926;5.332;2023-12-20T04:14:49;16.13;;;3.90;;
25553;SDS011;13446;50.926;5.332;2023-12-20T04:17:17;28.17;;;4.35;;
25553;SDS011;13446;50.926;5.332;2023-12-20T04:19:43;12.98;;;3.55;;
25553;SDS011;13446;50.926;5.332;2023-12-20T04:22:08;21.17;;;4.07;;
25553;SDS011;13446;50.926;5.332;2023-12-20T04:24:34;18.85;;;3.30;;
25553;SDS011;13446;50.926;5.332;2023-12-20T04:27:00;22.48;;;3.72;;
25553;SDS011;13446;50.926;5.332;2023-12-20T04:29:26;22.10;;;4.32;;
25553;SDS011;13446;50.926;5.332;2023-12-20T04:31:52;27.70;;;4.20;;
25553;SDS011;13446;50.926;5.332;2023-12-20T04:34:18;16.35;;;3.70;;
25553;SDS011;13446;50.926;5.332;2023-12-20T04:36:44;24.65;;;3.97;;
25553;SDS011;13446;50.926;5.332;2023-12-20T04:39:11;20.08;;;3.72;;
25553;SDS011;13446;50.926;5.332;2023-12-20T04:41:38;30.92;;;4.60;;
25553;SDS011;13446;50.926;5.332;2023-12-20T04:44:04;19.70;;;4.07;;
25553;SDS011;13446;50.926;5.332;2023-12-20T04:46:29;16.02;;;3.35;;
25553;SDS011;13446;50.926;5.332;2023-12-20T04:48:55;19.83;;;3.95;;
25553;SDS011;13446;50.926;5.332;2023-12-20T04:51:21;29.05;;;4.30;;
25553;SDS011;13446;50.926;5.332;2023-12-20T04:53:47;22.85;;;4.35;;
25553;SDS011;13446;50.926;5.332;2023-12-20T04:56:15;16.88;;;4.03;;
25553;SDS011;13446;50.926;5.332;2023-12-20T04:58:41;22.67;;;4.03;;
25553;SDS011;13446;50.926;5.332;2023-12-20T05:01:08;26.30;;;4.70;;
25553;SDS011;13446;50.926;5.332;2023-12-20T05:03:34;20.73;;;4.57;;
25553;SDS011;13446;50.926;5.332;2023-12-20T05:06:00;19.52;;;4.72;;
25553;SDS011;13446;50.926;5.332;2023-12-20T05:08:26;18.42;;;4.97;;
25553;SDS011;13446;50.926;5.332;2023-12-20T05:10:53;23.92;;;4.82;;
25553;SDS011;13446;50.926;5.332;2023-12-20T05:13:19;23.25;;;5.07;;
25553;SDS011;13446;50.926;5.332;2023-12-20T05:15:46;35.70;;;5.35;;
25553;SDS011;13446;50.926;5.332;2023-12-20T05:18:12;26.63;;;5.57;;
25553;SDS011;13446;50.926;5.332;2023-12-20T05:20:38;21.50;;;4.38;;
25553;SDS011;13446;50.926;5.332;2023-12-20T05:23:04;21.27;;;5.30;;
25553;SDS011;13446;50.926;5.332;2023-12-20T05:25:30;24.88;;;5.07;;
25553;SDS011;13446;50.926;5.332;2023-12-20T05:27:56;21.10;;;5.20;;
25553;SDS011;13446;50.926;5.332;2023-12-20T05:30:21;23.63;;;4.90;;
25553;SDS011;13446;50.926;5.332;2023-12-20T05:32:47;25.73;;;5.13;;
25553;SDS011;13446;50.926;5.332;2023-12-20T05:35:13;27.10;;;5.82;;
25553;SDS011;13446;50.926;5.332;2023-12-20T05:37:40;26.23;;;5.80;;
25553;SDS011;13446;50.926;5.332;2023-12-20T05:40:06;21.45;;;5.63;;
25553;SDS011;13446;50.926;5.332;2023-12-20T05:42:35;31.00;;;6.18;;
25553;SDS011;13446;50.926;5.332;2023-12-20T05:45:01;31.48;;;5.53;;
25553;SDS011;13446;50.926;5.332;2023-12-20T05:47:27;25.88;;;5.18;;
25553;SDS011;13446;50.926;5.332;2023-12-20T05:49:53;23.52;;;5.70;;
25553;SDS011;13446;50.926;5.332;2023-12-20T05:52:18;21.73;;;5.13;;
25553;SDS011;13446;50.926;5.332;2023-12-20T05:54:45;24.90;;;5.40;;
25553;SDS011;13446;50.926;5.332;2023-12-20T05:57:11;19.27;;;4.50;;
25553;SDS011;13446;50.926;5.332;2023-12-20T05:59:37;25.95;;;5.15;;
25553;SDS011;13446;50.926;5.332;2023-12-20T06:02:03;30.10;;;5.45;;
25553;SDS011;13446;50.926;5.332;2023-12-20T06:04:30;24.70;;;4.78;;
25553;SDS011;13446;50.926;5.332;2023-12-20T06:06:55;27.27;;;5.10;;
25553;SDS011;13446;50.926;5.332;2023-12-20T06:09:21;30.25;;;4.90;;
25553;SDS011;13446;50.926;5.332;2023-12-20T06:11:47;25.63;;;5.10;;
25553;SDS011;13446;50.926;5.332;2023-12-20T06:14:13;26.30;;;5.53;;
25553;SDS011;13446;50.926;5.332;2023-12-20T06:16:38;16.73;;;5.32;;
25553;SDS011;13446;50.926;5.332;2023-12-20T06:19:04;24.33;;;5.43;;
25553;SDS011;13446;50.926;5.332;2023-12-20T06:21:30;30.00;;;5.13;;
25553;SDS011;13446;50.926;5.332;2023-12-20T06:23:55;19.92;;;5.60;;
25553;SDS011;13446;50.926;5.332;2023-12-20T06:26:21;29.73;;;5.88;;
25553;SDS011;13446;50.926;5.332;2023-12-20T06:28:47;22.67;;;5.20;;
25553;SDS011;13446;50.926;5.332;2023-12-20T06:31:12;24.83;;;5.38;;
25553;SDS011;13446;50.926;5.332;2023-12-20T06:33:38;29.52;;;5.63;;
25553;SDS011;13446;50.926;5.332;2023-12-20T06:36:06;20.63;;;5.65;;
25553;SDS011;13446;50.926;5.332;2023-12-20T06:38:32;21.63;;;5.60;;
25553;SDS011;13446;50.926;5.332;2023-12-20T06:41:07;22.35;;;5.55;;
25553;SDS011;13446;50.926;5.332;2023-12-20T06:43:33;27.77;;;5.50;;
25553;SDS011;13446;50.926;5.332;2023-12-20T06:46:00;28.70;;;5.45;;
25553;SDS011;13446;50.926;5.332;2023-12-20T06:48:25;20.90;;;5.50;;
25553;SDS011;13446;50.926;5.332;2023-12-20T06:50:51;27.17;;;5.50;;
25553;SDS011;13446;50.926;5.332;2023-12-20T06:53:17;24.83;;;5.40;;
25553;SDS011;13446;50.926;5.332;2023-12-20T06:55:43;17.35;;;4.60;;
25553;SDS011;13446;50.926;5.332;2023-12-20T06:58:08;33.97;;;5.05;;
25553;SDS011;13446;50.926;5.332;2023-12-20T07:00:34;22.17;;;4.20;;
25553;SDS011;13446;50.926;5.332;2023-12-20T07:05:52;30.08;;;5.25;;
25553;SDS011;13446;50.926;5.332;2023-12-20T07:08:18;22.35;;;4.53;;
25553;SDS011;13446;50.926;5.332;2023-12-20T07:10:44;17.85;;;4.43;;
25553;SDS011;13446;50.926;5.332;2023-12-20T07:13:10;21.10;;;4.63;;
25553;SDS011;13446;50.926;5.332;2023-12-20T07:15:35;20.63;;;4.50;;
25553;SDS011;13446;50.926;5.332;2023-12-20T07:18:02;24.95;;;4.60;;
25553;SDS011;13446;50.926;5.332;2023-12-20T07:20:28;28.67;;;5.65;;
25553;SDS011;13446;50.926;5.332;2023-12-20T07:22:54;25.73;;;5.22;;
25553;SDS011;13446;50.926;5.332;2023-12-20T07:25:20;34.28;;;5.82;;
25553;SDS011;13446;50.926;5.332;2023-12-20T07:27:46;32.17;;;5.53;;
25553;SDS011;13446;50.926;5.332;2023-12-20T07:30:11;21.92;;;5.68;;
25553;SDS011;13446;50.926;5.332;2023-12-20T07:35:10;18.65;;;5.60;;
25553;SDS011;13446;50.926;5.332;2023-12-20T07:37:36;28.00;;;6.45;;
25553;SDS011;13446;50.926;5.332;2023-12-20T07:40:02;29.02;;;6.07;;
25553;SDS011;13446;50.926;5.332;2023-12-20T07:42:28;24.23;;;6.05;;
25553;SDS011;13446;50.926;5.332;2023-12-20T07:44:54;25.85;;;5.63;;
25553;SDS011;13446;50.926;5.332;2023-12-20T07:47:20;27.15;;;5.53;;
25553;SDS011;13446;50.926;5.332;2023-12-20T07:49:49;26.75;;;5.65;;
25553;SDS011;13446;50.926;5.332;2023-12-20T07:52:18;23.42;;;5.13;;
25553;SDS011;13446;50.926;5.332;2023-12-20T07:54:44;24.17;;;5.45;;
25553;SDS011;13446;50.926;5.332;2023-12-20T07:57:11;28.70;;;5.65;;
25553;SDS011;13446;50.926;5.332;2023-12-20T07:59:37;29.45;;;5.80;;
25553;SDS011;13446;50.926;5.332;2023-12-20T08:02:02;18.80;;;5.15;;
25553;SDS011;13446;50.926;5.332;2023-12-20T08:04:28;30.55;;;5.63;;
25553;SDS011;13446;50.926;5.332;2023-12-20T08:06:54;23.33;;;5.57;;
25553;SDS011;13446;50.926;5.332;2023-12-20T08:09:20;29.42;;;5.18;;
25553;SDS011;13446;50.926;5.332;2023-12-20T08:11:46;19.48;;;4.53;;
25553;SDS011;13446;50.926;5.332;2023-12-20T08:14:12;25.40;;;4.78;;
25553;SDS011;13446;50.926;5.332;2023-12-20T08:16:38;23.98;;;4.88;;
25553;SDS011;13446;50.926;5.332;2023-12-20T08:19:04;22.17;;;4.95;;
25553;SDS011;13446;50.926;5.332;2023-12-20T08:21:29;23.27;;;4.68;;
25553;SDS011;13446;50.926;5.332;2023-12-20T08:23:55;17.90;;;4.25;;
25553;SDS011;13446;50.926;5.332;2023-12-20T08:26:21;27.35;;;4.20;;
25553;SDS011;13446;50.926;5.332;2023-12-20T08:28:48;22.42;;;4.03;;
25553;SDS011;13446;50.926;5.332;2023-12-20T08:31:17;22.73;;;3.78;;
25553;SDS011;13446;50.926;5.332;2023-12-20T08:33:46;21.17;;;3.20;;
25553;SDS011;13446;50.926;5.332;2023-12-20T08:36:13;19.67;;;3.83;;
25553;SDS011;13446;50.926;5.332;2023-12-20T08:38:39;17.30;;;4.20;;
25553;SDS011;13446;50.926;5.332;2023-12-20T08:41:05;18.00;;;3.85;;
25553;SDS011;13446;50.926;5.332;2023-12-20T08:43:31;21.20;;;4.75;;
25553;SDS011;13446;50.926;5.332;2023-12-20T08:45:59;17.70;;;3.65;;
25553;SDS011;13446;50.926;5.332;2023-12-20T08:48:24;25.30;;;4.78;;
25553;SDS011;13446;50.926;5.332;2023-12-20T08:50:50;28.85;;;4.68;;
25553;SDS011;13446;50.926;5.332;2023-12-20T08:53:17;18.92;;;3.67;;
25553;SDS011;13446;50.926;5.332;2023-12-20T08:55:46;23.85;;;3.53;;
25553;SDS011;13446;50.926;5.332;2023-12-20T08:58:12;18.02;;;3.35;;
25553;SDS011;13446;50.926;5.332;2023-12-20T09:00:38;17.45;;;3.72;;
25553;SDS011;13446;50.926;5.332;2023-12-20T09:03:04;18.13;;;3.47;;
25553;SDS011;13446;50.926;5.332;2023-12-20T09:05:31;19.27;;;3.08;;
25553;SDS011;13446;50.926;5.332;2023-12-20T09:07:57;24.15;;;3.55;;
25553;SDS011;13446;50.926;5.332;2023-12-20T09:10:22;22.83;;;3.63;;
25553;SDS011;13446;50.926;5.332;2023-12-20T09:12:49;23.10;;;3.25;;
25553;SDS011;13446;50.926;5.332;2023-12-20T09:15:25;19.85;;;3.55;;
25553;SDS011;13446;50.926;5.332;2023-12-20T09:17:52;11.70;;;2.88;;
25553;SDS011;13446;50.926;5.332;2023-12-20T09:20:18;16.67;;;3.20;;
25553;SDS011;13446;50.926;5.332;2023-12-20T09:22:44;24.77;;;3.05;;
25553;SDS011;13446;50.926;5.332;2023-12-20T09:25:10;12.57;;;3.70;;
25553;SDS011;13446;50.926;5.332;2023-12-20T09:27:37;14.55;;;3.40;;
25553;SDS011;13446;50.926;5.332;2023-12-20T09:30:03;18.02;;;3.25;;
25553;SDS011;13446;50.926;5.332;2023-12-20T09:32:30;12.77;;;2.83;;
25553;SDS011;13446;50.926;5.332;2023-12-20T09:34:56;16.40;;;3.05;;
25553;SDS011;13446;50.926;5.332;2023-12-20T09:37:23;11.93;;;2.70;;
25553;SDS011;13446;50.926;5.332;2023-12-20T09:39:51;12.73;;;2.72;;
25553;SDS011;13446;50.926;5.332;2023-12-20T09:42:17;13.88;;;3.00;;
25553;SDS011;13446;50.926;5.332;2023-12-20T09:45:08;17.08;;;3.03;;
25553;SDS011;13446;50.926;5.332;2023-12-20T09:47:35;12.23;;;2.65;;
25553;SDS011;13446;50.926;5.332;2023-12-20T09:50:01;13.15;;;2.55;;
25553;SDS011;13446;50.926;5.332;2023-12-20T09:52:27;12.88;;;3.08;;
25553;SDS011;13446;50.926;5.332;2023-12-20T09:54:54;16.65;;;2.83;;
25553;SDS011;13446;50.926;5.332;2023-12-20T09:57:20;16.95;;;2.83;;
25553;SDS011;13446;50.926;5.332;2023-12-20T09:59:46;11.73;;;3.17;;
25553;SDS011;13446;50.926;5.332;2023-12-20T10:02:12;12.82;;;2.72;;
25553;SDS011;13446;50.926;5.332;2023-12-20T10:04:46;10.77;;;2.22;;
25553;SDS011;13446;50.926;5.332;2023-12-20T10:07:15;24.42;;;3.30;;
25553;SDS011;13446;50.926;5.332;2023-12-20T10:09:41;14.55;;;3.30;;
25553;SDS011;13446;50.926;5.332;2023-12-20T10:12:07;15.07;;;2.70;;
25553;SDS011;13446;50.926;5.332;2023-12-20T10:14:33;17.48;;;2.70;;
25553;SDS011;13446;50.926;5.332;2023-12-20T10:17:03;14.98;;;3.25;;
25553;SDS011;13446;50.926;5.332;2023-12-20T10:19:29;8.25;;;2.42;;
25553;SDS011;13446;50.926;5.332;2023-12-20T10:21:55;12.25;;;2.50;;
25553;SDS011;13446;50.926;5.332;2023-12-20T10:24:22;18.17;;;3.03;;
25553;SDS011;13446;50.926;5.332;2023-12-20T10:26:48;13.18;;;2.47;;
25553;SDS011;13446;50.926;5.332;2023-12-20T10:29:30;16.00;;;2.97;;
25553;SDS011;13446;50.926;5.332;2023-12-20T10:31:57;12.52;;;2.65;;
25553;SDS011;13446;50.926;5.332;2023-12-20T10:34:23;14.60;;;2.72;;
25553;SDS011;13446;50.926;5.332;2023-12-20T10:36:50;15.93;;;2.80;;
25553;SDS011;13446;50.926;5.332;2023-12-20T10:39:17;20.48;;;2.65;;
25553;SDS011;13446;50.926;5.332;2023-12-20T10:41:45;20.98;;;3.30;;
25553;SDS011;13446;50.926;5.332;2023-12-20T10:44:11;21.80;;;3.50;;
25553;SDS011;13446;50.926;5.332;2023-12-20T10:46:38;12.40;;;2.70;;
25553;SDS011;13446;50.926;5.332;2023-12-20T10:49:06;15.68;;;3.22;;
25553;SDS011;13446;50.926;5.332;2023-12-20T10:51:33;17.10;;;2.60;;
25553;SDS011;13446;50.926;5.332;2023-12-20T10:54:00;17.92;;;2.95;;
25553;SDS011;13446;50.926;5.332;2023-12-20T10:56:25;16.85;;;2.88;;
25553;SDS011;13446;50.926;5.332;2023-12-20T10:58:57;19.30;;;3.50;;
25553;SDS011;13446;50.926;5.332;2023-12-20T11:01:25;10.38;;;2.47;;
25553;SDS011;13446;50.926;5.332;2023-12-20T11:03:56;13.88;;;2.78;;
25553;SDS011;13446;50.926;5.332;2023-12-20T11:06:32;24.02;;;3.00;;
25553;SDS011;13446;50.926;5.332;2023-12-20T11:09:26;17.15;;;2.95;;
25553;SDS011;13446;50.926;5.332;2023-12-20T11:17:08;19.35;;;3.05;;
25553;SDS011;13446;50.926;5.332;2023-12-20T11:19:38;21.80;;;2.83;;
25553;SDS011;13446;50.926;5.332;2023-12-20T11:22:21;21.15;;;3.55;;
25553;SDS011;13446;50.926;5.332;2023-12-20T11:24:47;10.98;;;2.70;;
25553;SDS011;13446;50.926;5.332;2023-12-20T11:27:15;9.73;;;2.67;;
25553;SDS011;13446;50.926;5.332;2023-12-20T11:29:41;12.07;;;2.67;;
25553;SDS011;13446;50.926;5.332;2023-12-20T11:34:53;17.30;;;2.92;;
25553;SDS011;13446;50.926;5.332;2023-12-20T11:37:29;18.48;;;3.30;;
25553;SDS011;13446;50.926;5.332;2023-12-20T11:40:00;15.65;;;2.83;;
25553;SDS011;13446;50.926;5.332;2023-12-20T11:42:32;20.10;;;3.10;;
25553;SDS011;13446;50.926;5.332;2023-12-20T11:47:28;16.73;;;2.83;;
25553;SDS011;13446;50.926;5.332;2023-12-20T11:49:55;8.93;;;2.28;;
25553;SDS011;13446;50.926;5.332;2023-12-20T11:52:21;20.33;;;3.50;;
25553;SDS011;13446;50.926;5.332;2023-12-20T11:54:47;16.05;;;3.28;;
25553;SDS011;13446;50.926;5.332;2023-12-20T11:57:13;11.68;;;2.80;;
25553;SDS011;13446;50.926;5.332;2023-12-20T11:59:39;14.77;;;3.38;;
25553;SDS011;13446;50.926;5.332;2023-12-20T12:02:05;18.70;;;3.47;;
25553;SDS011;13446;50.926;5.332;2023-12-20T12:04:31;16.05;;;2.95;;
25553;SDS011;13446;50.926;5.332;2023-12-20T12:09:22;13.38;;;4.03;;
25553;SDS011;13446;50.926;5.332;2023-12-20T12:11:47;18.60;;;3.63;;
25553;SDS011;13446;50.926;5.332;2023-12-20T12:14:13;17.80;;;4.25;;
25553;SDS011;13446;50.926;5.332;2023-12-20T12:16:41;18.38;;;3.78;;
25553;SDS011;13446;50.926;5.332;2023-12-20T12:19:14;19.17;;;3.42;;
25553;SDS011;13446;50.926;5.332;2023-12-20T12:22:10;17.08;;;3.45;;
25553;SDS011;13446;50.926;5.332;2023-12-20T12:24:45;20.10;;;3.22;;
25553;SDS011;13446;50.926;5.332;2023-12-20T12:29:38;19.75;;;3.53;;
25553;SDS011;13446;50.926;5.332;2023-12-20T12:32:08;24.90;;;4.43;;
25553;SDS011;13446;50.926;5.332;2023-12-20T12:34:34;22.02;;;3.90;;
25553;SDS011;13446;50.926;5.332;2023-12-20T12:37:01;17.02;;;3.47;;
25553;SDS011;13446;50.926;5.332;2023-12-20T12:39:28;23.50;;;4.05;;
25553;SDS011;13446;50.926;5.332;2023-12-20T12:41:55;15.65;;;3.47;;
25553;SDS011;13446;50.926;5.332;2023-12-20T12:44:22;15.35;;;3.63;;
25553;SDS011;13446;50.926;5.332;2023-12-20T12:46:49;20.63;;;4.10;;
25553;SDS011;13446;50.926;5.332;2023-12-20T12:49:18;15.45;;;3.80;;
25553;SDS011;13446;50.926;5.332;2023-12-20T12:51:44;18.70;;;3.60;;
25553;SDS011;13446;50.926;5.332;2023-12-20T12:54:10;14.68;;;3.58;;
25553;SDS011;13446;50.926;5.332;2023-12-20T12:56:38;16.52;;;3.20;;
25553;SDS011;13446;50.926;5.332;2023-12-20T12:59:04;15.38;;;3.00;;
25553;SDS011;13446;50.926;5.332;2023-12-20T13:01:31;18.27;;;3.70;;
25553;SDS011;13446;50.926;5.332;2023-12-20T13:03:56;17.38;;;3.17;;
25553;SDS011;13446;50.926;5.332;2023-12-20T13:06:22;13.95;;;3.10;;
25553;SDS011;13446;50.926;5.332;2023-12-20T13:08:48;16.13;;;3.40;;
25553;SDS011;13446;50.926;5.332;2023-12-20T13:11:15;16.50;;;3.40;;
25553;SDS011;13446;50.926;5.332;2023-12-20T13:13:40;21.08;;;3.50;;
25553;SDS011;13446;50.926;5.332;2023-12-20T13:16:06;23.90;;;3.70;;
25553;SDS011;13446;50.926;5.332;2023-12-20T13:18:32;13.85;;;3.22;;
25553;SDS011;13446;50.926;5.332;2023-12-20T13:20:58;19.33;;;3.28;;
25553;SDS011;13446;50.926;5.332;2023-12-20T13:23:24;18.77;;;3.58;;
25553;SDS011;13446;50.926;5.332;2023-12-20T13:25:49;15.20;;;3.40;;
25553;SDS011;13446;50.926;5.332;2023-12-20T13:28:15;20.45;;;3.45;;
25553;SDS011;13446;50.926;5.332;2023-12-20T13:30:42;17.20;;;3.50;;
25553;SDS011;13446;50.926;5.332;2023-12-20T13:33:08;14.88;;;3.08;;
25553;SDS011;13446;50.926;5.332;2023-12-20T13:35:34;17.15;;;3.28;;
25553;SDS011;13446;50.926;5.332;2023-12-20T13:38:00;15.80;;;3.92;;
25553;SDS011;13446;50.926;5.332;2023-12-20T13:40:26;13.52;;;3.30;;
25553;SDS011;13446;50.926;5.332;2023-12-20T13:42:51;18.20;;;3.22;;
25553;SDS011;13446;50.926;5.332;2023-12-20T13:45:17;20.60;;;3.70;;
25553;SDS011;13446;50.926;5.332;2023-12-20T13:47:43;16.42;;;3.55;;
25553;SDS011;13446;50.926;5.332;2023-12-20T13:50:09;22.05;;;4.00;;
25553;SDS011;13446;50.926;5.332;2023-12-20T13:52:35;19.50;;;3.67;;
25553;SDS011;13446;50.926;5.332;2023-12-20T13:55:01;18.50;;;4.05;;
25553;SDS011;13446;50.926;5.332;2023-12-20T13:57:27;16.63;;;4.00;;
25553;SDS011;13446;50.926;5.332;2023-12-20T13:59:54;18.83;;;3.83;;
25553;SDS011;13446;50.926;5.332;2023-12-20T14:02:22;19.88;;;4.15;;
25553;SDS011;13446;50.926;5.332;2023-12-20T14:04:48;19.95;;;3.88;;
25553;SDS011;13446;50.926;5.332;2023-12-20T14:07:17;20.45;;;4.00;;
25553;SDS011;13446;50.926;5.332;2023-12-20T14:09:46;22.88;;;4.10;;
25553;SDS011;13446;50.926;5.332;2023-12-20T14:12:12;23.73;;;4.65;;
25553;SDS011;13446;50.926;5.332;2023-12-20T14:14:38;13.85;;;3.90;;
25553;SDS011;13446;50.926;5.332;2023-12-20T14:17:04;16.48;;;3.35;;
25553;SDS011;13446;50.926;5.332;2023-12-20T14:19:31;21.13;;;4.38;;
25553;SDS011;13446;50.926;5.332;2023-12-20T14:21:57;16.33;;;4.13;;
25553;SDS011;13446;50.926;5.332;2023-12-20T14:24:26;15.80;;;3.67;;
25553;SDS011;13446;50.926;5.332;2023-12-20T14:26:52;18.00;;;4.13;;
25553;SDS011;13446;50.926;5.332;2023-12-20T14:29:18;15.63;;;3.80;;
25553;SDS011;13446;50.926;5.332;2023-12-20T14:31:44;14.43;;;3.63;;
25553;SDS011;13446;50.926;5.332;2023-12-20T14:34:10;16.17;;;3.83;;
25553;SDS011;13446;50.926;5.332;2023-12-20T14:36:36;20.13;;;3.65;;
25553;SDS011;13446;50.926;5.332;2023-12-20T14:39:02;17.85;;;3.88;;
25553;SDS011;13446;50.926;5.332;2023-12-20T14:41:29;21.63;;;4.15;;
25553;SDS011;13446;50.926;5.332;2023-12-20T14:43:55;17.70;;;3.30;;
25553;SDS011;13446;50.926;5.332;2023-12-20T14:46:21;25.80;;;4.20;;
25553;SDS011;13446;50.926;5.332;2023-12-20T14:48:47;15.68;;;3.70;;
25553;SDS011;13446;50.926;5.332;2023-12-20T14:51:14;15.88;;;3.28;;
25553;SDS011;13446;50.926;5.332;2023-12-20T14:53:40;13.60;;;3.25;;